Time;durP1;ratioP1;P1;durP2;ratioP2;P2;SDS_P1;SDS_P2;PMS_P1;PMS_P2;Temp;Humidity;BMP_temperature;BMP_pressure;BME280_temperature;BME280_humidity;BME280_pressure;Samples;Min_cycle;Max_cycle;Signal;HPM_P1;HPM_P2
2023/05/26 00:01:00;;;;;;;9.00;6.33;;;20.20;44.80;;;;;;5010247;28;20442;-85
2023/05/26 00:03:28;;;;;;;9.00;5.20;;;20.10;44.80;;;;;;5026665;28;20469;-84
2023/05/26 00:05:55;;;;;;;9.43;5.80;;;20.10;44.90;;;;;;5030736;28;20549;-84
2023/05/26 00:08:23;;;;;;;8.33;5.60;;;20.00;45.60;;;;;;5002594;28;20451;-84
2023/05/26 00:10:51;;;;;;;7.77;5.80;;;20.00;44.90;;;;;;5021121;28;20502;-84
2023/05/26 00:13:18;;;;;;;13.50;5.93;;;19.90;45.30;;;;;;5005910;28;20481;-84
2023/05/26 00:15:45;;;;;;;10.53;5.93;;;19.90;45.60;;;;;;5010221;28;20504;-86
2023/05/26 00:18:12;;;;;;;9.20;5.70;;;19.80;46.10;;;;;;5001371;28;20474;-84
2023/05/26 00:20:40;;;;;;;10.20;6.00;;;19.80;45.90;;;;;;5021947;28;20446;-85
2023/05/26 00:23:07;;;;;;;9.53;5.80;;;19.80;46.10;;;;;;4991389;28;20480;-84
2023/05/26 00:25:34;;;;;;;10.27;5.63;;;19.80;46.00;;;;;;4992121;28;20455;-87
2023/05/26 00:28:02;;;;;;;10.03;6.37;;;19.80;46.20;;;;;;5029432;28;20453;-85
2023/05/26 00:30:29;;;;;;;9.80;5.80;;;19.70;46.50;;;;;;4999607;28;20442;-84
2023/05/26 00:32:57;;;;;;;7.37;5.93;;;19.60;46.20;;;;;;4997188;28;20554;-84
2023/05/26 00:35:24;;;;;;;9.80;5.83;;;19.60;46.30;;;;;;5032815;28;20454;-83
2023/05/26 00:37:51;;;;;;;11.53;5.53;;;19.60;46.90;;;;;;5026668;28;20438;-85
2023/05/26 00:40:18;;;;;;;12.63;6.33;;;19.60;46.90;;;;;;4994022;28;21026;-84
2023/05/26 00:42:45;;;;;;;9.20;5.67;;;19.50;47.00;;;;;;5007466;28;20972;-84
2023/05/26 00:45:13;;;;;;;7.83;5.90;;;19.50;47.00;;;;;;5012583;28;20450;-83
2023/05/26 00:47:41;;;;;;;8.87;5.63;;;19.50;47.00;;;;;;5006699;28;20438;-84
2023/05/26 00:50:12;;;;;;;9.13;6.27;;;19.50;47.00;;;;;;5013620;28;20532;-84
2023/05/26 00:52:40;;;;;;;10.27;6.30;;;19.40;47.10;;;;;;5033511;28;20792;-85
2023/05/26 00:55:09;;;;;;;10.40;6.33;;;19.20;47.70;;;;;;5035229;28;20459;-84
2023/05/26 00:57:38;;;;;;;10.90;5.87;;;19.20;47.50;;;;;;5024551;28;20865;-84
2023/05/26 01:00:08;;;;;;;9.50;5.40;;;19.20;47.70;;;;;;5038913;28;20556;-84
2023/05/26 01:02:39;;;;;;;8.63;6.00;;;19.20;47.30;;;;;;5012885;28;20438;-85
2023/05/26 01:05:08;;;;;;;10.03;5.77;;;19.20;47.40;;;;;;5019213;28;20449;-84
2023/05/26 01:07:35;;;;;;;8.17;5.13;;;19.20;46.80;;;;;;5021003;28;20841;-84
2023/05/26 01:10:02;;;;;;;8.97;6.40;;;19.10;46.00;;;;;;5017650;28;20439;-84
2023/05/26 01:12:36;;;;;;;8.67;5.63;;;19.10;47.20;;;;;;5017354;28;20461;-84
2023/05/26 01:15:10;;;;;;;8.70;6.37;;;19.10;47.70;;;;;;5027977;28;20438;-83
2023/05/26 01:17:57;;;;;;;14.00;6.80;;;19.00;47.60;;;;;;5011817;28;20449;-86
2023/05/26 01:20:27;;;;;;;9.93;5.93;;;19.00;47.90;;;;;;5015829;28;20513;-83
2023/05/26 01:23:18;;;;;;;7.63;5.90;;;18.90;48.00;;;;;;5010162;28;20493;-84
2023/05/26 01:25:58;;;;;;;9.97;5.60;;;18.90;47.70;;;;;;5006856;28;20482;-86
2023/05/26 01:28:29;;;;;;;15.30;5.77;;;18.80;47.50;;;;;;5016162;28;20567;-84
2023/05/26 01:30:58;;;;;;;10.90;5.90;;;18.80;48.20;;;;;;5009965;28;20446;-84
2023/05/26 01:33:25;;;;;;;10.97;6.60;;;18.80;48.00;;;;;;5010147;28;20523;-83
2023/05/26 01:35:51;;;;;;;10.10;6.10;;;18.70;48.30;;;;;;5027940;28;20454;-84
2023/05/26 01:38:19;;;;;;;10.63;6.73;;;18.70;48.10;;;;;;5018359;28;20549;-83
2023/05/26 01:40:53;;;;;;;10.70;7.23;;;18.70;48.20;;;;;;5010851;28;21133;-83
2023/05/26 01:43:24;;;;;;;14.63;8.03;;;18.60;48.90;;;;;;5027074;28;21088;-82
2023/05/26 01:46:00;;;;;;;8.63;5.87;;;18.50;48.60;;;;;;5017820;28;20457;-84
2023/05/26 01:48:29;;;;;;;11.30;6.30;;;18.50;47.80;;;;;;5008786;28;20446;-84
2023/05/26 01:50:58;;;;;;;10.37;6.13;;;18.50;47.90;;;;;;5010880;28;20450;-84
2023/05/26 01:53:30;;;;;;;7.07;5.53;;;18.50;48.10;;;;;;5001599;28;20477;-86
2023/05/26 01:56:00;;;;;;;9.67;6.60;;;18.40;47.60;;;;;;5018719;28;20457;-85
2023/05/26 01:58:28;;;;;;;10.70;6.97;;;18.20;49.20;;;;;;5006810;28;20526;-83
2023/05/26 02:00:58;;;;;;;10.93;6.83;;;18.10;48.80;;;;;;5014788;28;20545;-84
2023/05/26 02:03:26;;;;;;;12.57;7.43;;;18.00;49.60;;;;;;5008615;28;20471;-83
2023/05/26 02:05:53;;;;;;;10.80;6.77;;;18.00;50.00;;;;;;5019107;28;20490;-84
2023/05/26 02:08:22;;;;;;;10.40;6.27;;;18.10;49.20;;;;;;5019535;28;20473;-85
2023/05/26 02:10:49;;;;;;;11.57;6.67;;;18.10;49.60;;;;;;5006345;28;20453;-84
2023/05/26 02:13:16;;;;;;;9.70;6.50;;;18.10;49.20;;;;;;5007003;28;20474;-85
2023/05/26 02:15:43;;;;;;;12.23;6.53;;;18.10;49.40;;;;;;5000226;28;20447;-84
2023/05/26 02:18:11;;;;;;;11.07;7.63;;;18.10;49.20;;;;;;5026650;28;20453;-84
2023/05/26 02:20:40;;;;;;;10.00;6.40;;;18.10;49.40;;;;;;5009091;28;20896;-85
2023/05/26 02:23:07;;;;;;;11.27;7.17;;;18.10;49.40;;;;;;5012326;28;20473;-84
2023/05/26 02:25:34;;;;;;;13.00;6.83;;;18.10;49.10;;;;;;5010921;28;20468;-84
2023/05/26 02:28:01;;;;;;;10.10;7.20;;;18.00;49.80;;;;;;5036078;28;20567;-84
2023/05/26 02:30:28;;;;;;;11.33;7.07;;;18.00;49.70;;;;;;5004009;28;20884;-83
2023/05/26 02:32:55;;;;;;;12.80;7.10;;;18.10;49.60;;;;;;5012805;28;20478;-84
2023/05/26 02:35:24;;;;;;;12.67;6.63;;;18.10;49.50;;;;;;5021488;28;20461;-84
2023/05/26 02:37:51;;;;;;;15.50;7.87;;;18.00;49.40;;;;;;5024507;28;20443;-85
2023/05/26 02:40:18;;;;;;;10.57;7.00;;;18.00;49.30;;;;;;5020165;28;20478;-85
2023/05/26 02:42:45;;;;;;;10.53;6.97;;;17.90;49.60;;;;;;5002545;28;20448;-84
2023/05/26 02:45:12;;;;;;;11.80;7.20;;;17.90;49.20;;;;;;5028077;28;20450;-86
2023/05/26 02:47:39;;;;;;;11.87;6.60;;;17.90;49.80;;;;;;5001878;28;20450;-84
2023/05/26 02:50:07;;;;;;;15.20;7.40;;;17.80;49.30;;;;;;5019865;28;20461;-84
2023/05/26 02:52:35;;;;;;;13.13;7.07;;;17.80;49.80;;;;;;5019367;28;20465;-84
2023/05/26 02:55:03;;;;;;;10.10;7.20;;;17.70;50.00;;;;;;5027842;28;20458;-84
2023/05/26 02:57:30;;;;;;;11.60;7.17;;;17.60;49.90;;;;;;5018115;28;20453;-85
2023/05/26 02:59:57;;;;;;;11.80;7.10;;;17.60;49.90;;;;;;5030339;28;20686;-84
2023/05/26 03:02:24;;;;;;;10.30;7.20;;;17.60;50.20;;;;;;5012447;28;20461;-84
2023/05/26 03:04:52;;;;;;;11.73;7.10;;;17.60;50.10;;;;;;4997955;28;20489;-84
2023/05/26 03:07:19;;;;;;;9.50;6.37;;;17.50;50.20;;;;;;4997577;28;20466;-83
2023/05/26 03:09:47;;;;;;;12.33;6.57;;;17.50;49.80;;;;;;5011721;28;22418;-84
2023/05/26 03:12:15;;;;;;;10.70;8.00;;;17.40;49.90;;;;;;5005151;28;20462;-84
2023/05/26 03:14:43;;;;;;;8.97;6.70;;;17.40;50.30;;;;;;5017240;28;20474;-84
2023/05/26 03:17:10;;;;;;;19.07;7.03;;;17.40;50.40;;;;;;5038296;28;20885;-83
2023/05/26 03:19:38;;;;;;;8.80;6.97;;;17.40;50.00;;;;;;4991219;28;20560;-83
2023/05/26 03:22:05;;;;;;;14.00;6.87;;;17.40;50.70;;;;;;5017686;28;21131;-84
2023/05/26 03:24:34;;;;;;;10.20;6.80;;;17.40;50.50;;;;;;5012110;28;20486;-85
2023/05/26 03:27:03;;;;;;;11.03;7.10;;;17.30;50.50;;;;;;5020688;28;20508;-85
2023/05/26 03:29:30;;;;;;;8.07;7.00;;;17.30;50.40;;;;;;4998368;28;20446;-83
2023/05/26 03:31:59;;;;;;;14.33;7.57;;;17.30;50.50;;;;;;4999545;28;20446;-82
2023/05/26 03:34:27;;;;;;;13.43;7.50;;;17.30;50.80;;;;;;5029393;28;20521;-83
2023/05/26 03:36:56;;;;;;;12.13;7.27;;;17.20;50.70;;;;;;5037366;28;20530;-84
2023/05/26 03:39:26;;;;;;;13.37;6.63;;;17.20;50.90;;;;;;5019774;28;20921;-84
2023/05/26 03:41:56;;;;;;;10.53;6.20;;;17.20;50.70;;;;;;5011796;28;20463;-84
2023/05/26 03:44:27;;;;;;;10.40;6.57;;;17.20;50.80;;;;;;5004544;28;20480;-84
2023/05/26 03:46:54;;;;;;;14.30;7.07;;;17.20;50.50;;;;;;5026391;28;20466;-85
2023/05/26 03:49:21;;;;;;;15.90;7.70;;;17.20;50.70;;;;;;5017847;28;20541;-84
2023/05/26 03:51:48;;;;;;;14.70;7.20;;;17.20;50.70;;;;;;5010499;28;20683;-83
2023/05/26 03:54:15;;;;;;;9.30;7.40;;;17.20;50.80;;;;;;5027998;28;20474;-85
2023/05/26 03:56:42;;;;;;;15.10;7.27;;;17.20;51.30;;;;;;5016713;28;20488;-84
2023/05/26 03:59:09;;;;;;;13.40;7.20;;;17.10;51.30;;;;;;5035043;28;20462;-83
2023/05/26 04:01:38;;;;;;;11.60;7.23;;;17.10;51.70;;;;;;5017254;28;20450;-85
2023/05/26 04:04:05;;;;;;;9.50;6.90;;;17.10;52.00;;;;;;5015306;28;20994;-84
2023/05/26 04:06:33;;;;;;;9.43;6.67;;;17.10;51.80;;;;;;5010892;28;20446;-85
2023/05/26 04:09:03;;;;;;;12.00;7.83;;;17.10;51.60;;;;;;5001126;28;20450;-82
2023/05/26 04:11:30;;;;;;;10.00;7.33;;;17.00;51.40;;;;;;5010061;28;20941;-82
2023/05/26 04:13:57;;;;;;;14.53;7.73;;;17.10;51.70;;;;;;4998188;28;21128;-85
2023/05/26 04:16:24;;;;;;;9.90;7.20;;;17.10;51.80;;;;;;5019929;28;20445;-83
2023/05/26 04:18:52;;;;;;;10.40;7.40;;;17.10;51.90;;;;;;5011065;28;20458;-83
2023/05/26 04:21:19;;;;;;;11.20;7.93;;;17.10;51.60;;;;;;4989922;28;20482;-83
2023/05/26 04:23:47;;;;;;;10.97;7.43;;;17.10;51.70;;;;;;4995997;28;20473;-83
2023/05/26 04:26:17;;;;;;;10.97;7.00;;;17.10;51.90;;;;;;4988450;28;20600;-82
2023/05/26 04:29:04;;;;;;;15.07;8.97;;;17.10;52.10;;;;;;4982458;28;20454;-86
2023/05/26 04:31:51;;;;;;;11.70;8.07;;;17.20;52.40;;;;;;5022717;28;20469;-83
2023/05/26 04:34:39;;;;;;;13.30;9.13;;;17.20;52.80;;;;;;5023948;28;20473;-84
2023/05/26 04:37:24;;;;;;;12.30;8.60;;;17.20;52.30;;;;;;5010281;28;20458;-83
2023/05/26 04:39:51;;;;;;;11.13;8.57;;;17.20;53.00;;;;;;5006677;28;20477;-84
2023/05/26 04:42:19;;;;;;;12.20;7.60;;;17.20;53.20;;;;;;4991075;28;20458;-82
2023/05/26 04:44:45;;;;;;;10.53;7.40;;;17.20;53.60;;;;;;5025229;28;20468;-84
2023/05/26 04:47:13;;;;;;;12.07;7.93;;;17.20;53.20;;;;;;5011162;28;20481;-85
2023/05/26 04:49:42;;;;;;;19.73;8.60;;;17.10;52.00;;;;;;5007351;28;20445;-82
2023/05/26 04:52:09;;;;;;;14.00;8.73;;;17.10;53.90;;;;;;5013766;28;20991;-83
2023/05/26 04:54:40;;;;;;;10.17;7.23;;;17.10;54.60;;;;;;5023020;28;20497;-85
2023/05/26 04:57:08;;;;;;;12.30;7.90;;;17.10;54.70;;;;;;5022511;28;20451;-83
2023/05/26 04:59:45;;;;;;;16.30;8.73;;;17.20;54.20;;;;;;5013359;28;20502;-83
2023/05/26 05:02:12;;;;;;;11.77;7.53;;;17.20;54.20;;;;;;4999636;28;20461;-83
2023/05/26 05:05:19;;;;;;;13.60;7.10;;;17.30;54.00;;;;;;4998488;28;20453;-83
2023/05/26 05:07:50;;;;;;;13.93;8.10;;;17.30;53.70;;;;;;5000759;28;20455;-83
2023/05/26 05:10:17;;;;;;;11.27;7.80;;;17.40;53.70;;;;;;4992136;28;20460;-83
2023/05/26 05:12:46;;;;;;;14.50;8.63;;;17.40;53.90;;;;;;5030642;28;20550;-82
2023/05/26 05:15:14;;;;;;;16.23;7.80;;;17.40;54.20;;;;;;5005827;28;21018;-85
2023/05/26 05:17:41;;;;;;;16.97;8.60;;;17.40;54.00;;;;;;5008770;28;20464;-83
2023/05/26 05:20:09;;;;;;;17.23;8.20;;;17.40;53.90;;;;;;4994562;28;20470;-84
2023/05/26 05:22:37;;;;;;;18.00;9.10;;;17.50;54.30;;;;;;5014919;28;20940;-84
2023/05/26 05:25:06;;;;;;;13.60;7.90;;;17.40;54.10;;;;;;5011490;28;20549;-84
2023/05/26 05:27:33;;;;;;;18.47;7.93;;;17.50;54.20;;;;;;5015826;28;20446;-84
2023/05/26 05:30:00;;;;;;;15.20;8.30;;;17.60;54.40;;;;;;5014635;28;21013;-86
2023/05/26 05:32:30;;;;;;;17.13;9.00;;;17.70;54.10;;;;;;5024417;28;20548;-83
2023/05/26 05:34:57;;;;;;;14.40;8.60;;;17.80;53.90;;;;;;5007498;28;20478;-85
2023/05/26 05:37:24;;;;;;;19.10;8.00;;;17.80;53.50;;;;;;5006612;28;20572;-84
2023/05/26 05:39:52;;;;;;;13.47;7.03;;;17.90;54.10;;;;;;4991285;28;20500;-84
2023/05/26 05:42:21;;;;;;;17.57;8.07;;;17.90;54.30;;;;;;5012003;28;20947;-84
2023/05/26 05:44:48;;;;;;;16.47;8.70;;;18.00;54.50;;;;;;5022323;28;20470;-84
2023/05/26 05:47:15;;;;;;;13.33;7.30;;;18.00;53.40;;;;;;5015439;28;20458;-85
2023/05/26 05:49:47;;;;;;;12.87;7.43;;;18.10;54.10;;;;;;4993068;28;20627;-88
2023/05/26 05:52:14;;;;;;;20.73;8.20;;;18.30;54.20;;;;;;5028746;28;20954;-84
2023/05/26 05:54:42;;;;;;;12.70;7.43;;;18.50;54.00;;;;;;5028060;28;20469;-84
2023/05/26 05:57:11;;;;;;;11.40;7.70;;;18.70;53.70;;;;;;5010811;28;20486;-82
2023/05/26 05:59:38;;;;;;;19.17;7.80;;;18.90;53.40;;;;;;5009395;28;20454;-83
2023/05/26 06:02:05;;;;;;;16.70;8.10;;;19.10;53.10;;;;;;5014444;28;20465;-86
2023/05/26 06:04:32;;;;;;;14.20;8.10;;;19.20;52.40;;;;;;5004416;28;21201;-83
2023/05/26 06:07:00;;;;;;;14.23;6.73;;;19.30;52.50;;;;;;5001119;28;20452;-86
2023/05/26 06:09:27;;;;;;;12.07;8.03;;;19.40;51.90;;;;;;5003758;28;20944;-84
2023/05/26 06:11:54;;;;;;;10.50;7.20;;;19.50;51.60;;;;;;5017308;28;21098;-86
2023/05/26 06:14:22;;;;;;;11.10;6.83;;;19.50;51.30;;;;;;4995415;28;20461;-81
2023/05/26 06:16:50;;;;;;;13.27;6.83;;;19.60;51.40;;;;;;5000326;28;21356;-85
2023/05/26 06:19:17;;;;;;;7.67;5.60;;;19.80;50.90;;;;;;5028783;28;21275;-84
2023/05/26 06:21:44;;;;;;;15.53;7.20;;;19.50;49.60;;;;;;5012386;28;21075;-84
2023/05/26 06:24:12;;;;;;;13.67;7.57;;;19.50;50.60;;;;;;4994026;28;20473;-85
2023/05/26 06:26:40;;;;;;;10.53;6.97;;;19.30;49.80;;;;;;5007464;28;20454;-83
2023/05/26 06:29:08;;;;;;;9.87;7.00;;;19.50;51.10;;;;;;5027282;28;20448;-83
2023/05/26 06:31:38;;;;;;;11.23;6.03;;;19.80;50.20;;;;;;5026232;28;21246;-84
2023/05/26 06:34:09;;;;;;;9.20;5.80;;;19.70;49.60;;;;;;5015258;28;20470;-85
2023/05/26 06:36:36;;;;;;;13.20;6.90;;;19.50;48.80;;;;;;5013773;28;20446;-84
2023/05/26 06:39:03;;;;;;;10.43;6.43;;;19.20;49.40;;;;;;5029166;28;20450;-84
2023/05/26 06:41:33;;;;;;;8.33;6.60;;;19.20;50.00;;;;;;5011535;28;20557;-83
2023/05/26 06:44:00;;;;;;;10.60;6.30;;;19.40;50.10;;;;;;5031427;28;20471;-83
2023/05/26 06:46:27;;;;;;;11.77;6.13;;;19.50;49.60;;;;;;5036589;28;20553;-85
2023/05/26 06:48:58;;;;;;;9.40;5.53;;;19.60;49.10;;;;;;5029739;28;20448;-83
2023/05/26 06:51:34;;;;;;;10.80;5.87;;;19.40;48.80;;;;;;5010253;28;20544;-83
2023/05/26 06:54:01;;;;;;;11.37;6.60;;;19.50;49.50;;;;;;4999693;28;20998;-88
2023/05/26 06:56:28;;;;;;;7.60;5.00;;;19.70;48.60;;;;;;5020891;28;20569;-83
2023/05/26 06:58:55;;;;;;;7.43;5.80;;;19.90;48.20;;;;;;5026455;28;20827;-83
2023/05/26 07:01:23;;;;;;;12.33;6.40;;;20.10;47.90;;;;;;5007430;28;20468;-81
2023/05/26 07:03:51;;;;;;;8.37;5.83;;;20.10;48.00;;;;;;5011652;28;20465;-83
2023/05/26 07:06:19;;;;;;;11.87;5.93;;;20.10;47.90;;;;;;5035797;28;20457;-85
2023/05/26 07:08:49;;;;;;;11.93;5.83;;;20.20;47.40;;;;;;5018298;28;20457;-83
2023/05/26 07:11:36;;;;;;;10.87;5.60;;;20.30;47.50;;;;;;5030260;28;20450;-85
2023/05/26 07:14:08;;;;;;;8.53;5.83;;;20.20;47.60;;;;;;5019549;28;21301;-83
2023/05/26 07:16:35;;;;;;;7.50;5.00;;;20.30;47.60;;;;;;5031086;28;20781;-84
2023/05/26 07:19:03;;;;;;;8.97;5.50;;;20.50;47.00;;;;;;5008887;28;20450;-83
2023/05/26 07:21:32;;;;;;;7.53;5.67;;;20.70;47.00;;;;;;5021508;28;20986;-86
2023/05/26 07:24:01;;;;;;;8.13;5.30;;;20.80;46.80;;;;;;5016441;28;20485;-84
2023/05/26 07:26:28;;;;;;;11.67;5.20;;;20.80;46.50;;;;;;5005636;28;20454;-83
2023/05/26 07:28:55;;;;;;;11.20;5.63;;;20.70;46.90;;;;;;5009374;28;20488;-83
2023/05/26 07:31:22;;;;;;;10.00;5.40;;;20.70;47.00;;;;;;5004562;28;20450;-84
2023/05/26 07:33:54;;;;;;;12.27;5.60;;;20.80;46.50;;;;;;5011930;28;20488;-83
2023/05/26 07:36:21;;;;;;;11.10;5.87;;;21.10;47.00;;;;;;5017176;28;20447;-83
2023/05/26 07:38:49;;;;;;;8.60;4.90;;;21.00;45.60;;;;;;5026524;28;20447;-83
2023/05/26 07:41:16;;;;;;;6.70;4.80;;;21.00;46.40;;;;;;4993687;28;20485;-83
2023/05/26 07:43:43;;;;;;;15.10;6.57;;;21.10;46.30;;;;;;5029164;28;20473;-85
2023/05/26 07:46:10;;;;;;;11.60;6.03;;;21.50;46.30;;;;;;5014581;28;20883;-85
2023/05/26 07:48:37;;;;;;;8.80;5.20;;;21.70;45.40;;;;;;5038658;28;20453;-83
2023/05/26 07:51:04;;;;;;;11.53;5.60;;;21.90;45.70;;;;;;5037163;28;20446;-82
2023/05/26 07:53:31;;;;;;;7.07;5.77;;;21.90;45.40;;;;;;5027289;28;20551;-83
2023/05/26 07:55:59;;;;;;;11.73;5.47;;;21.80;45.10;;;;;;5018887;28;20483;-84
2023/05/26 07:58:26;;;;;;;9.37;5.10;;;22.00;44.60;;;;;;5017350;28;20986;-84
2023/05/26 08:00:53;;;;;;;8.90;4.63;;;22.10;45.30;;;;;;5008584;28;20481;-84
2023/05/26 08:03:20;;;;;;;7.30;4.60;;;22.00;45.20;;;;;;5022534;28;20477;-86
2023/05/26 08:05:48;;;;;;;8.50;4.57;;;21.70;45.40;;;;;;5027125;28;20458;-84
2023/05/26 08:08:15;;;;;;;9.63;5.00;;;21.90;45.10;;;;;;5036302;28;20451;-83
2023/05/26 08:10:42;;;;;;;7.87;4.70;;;22.10;44.70;;;;;;5009172;28;20461;-83
2023/05/26 08:13:10;;;;;;;12.00;4.80;;;22.20;44.90;;;;;;5010292;28;20830;-84
2023/05/26 08:15:37;;;;;;;6.47;4.33;;;22.20;44.50;;;;;;5026695;28;20485;-83
2023/05/26 08:18:04;;;;;;;7.67;5.40;;;22.40;45.10;;;;;;5015434;28;20447;-83
2023/05/26 08:20:31;;;;;;;9.50;4.97;;;22.60;44.60;;;;;;5000387;28;20458;-84
2023/05/26 08:22:58;;;;;;;9.37;5.17;;;22.50;43.80;;;;;;5005840;28;20480;-83
2023/05/26 08:25:25;;;;;;;8.57;5.30;;;22.60;44.40;;;;;;5009392;28;20540;-84
2023/05/26 08:27:52;;;;;;;7.83;5.30;;;22.80;44.00;;;;;;5013129;28;20453;-83
2023/05/26 08:30:20;;;;;;;5.67;4.37;;;22.90;43.60;;;;;;5023788;28;20459;-85
2023/05/26 08:32:48;;;;;;;5.50;4.00;;;23.10;43.90;;;;;;5008319;28;20449;-84
2023/05/26 08:35:15;;;;;;;9.27;5.17;;;23.10;43.10;;;;;;5011410;28;20438;-83
2023/05/26 08:37:42;;;;;;;6.90;5.03;;;23.00;44.20;;;;;;5021594;28;20454;-83
2023/05/26 08:40:11;;;;;;;8.97;5.20;;;23.10;43.30;;;;;;4992266;28;20450;-85
2023/05/26 08:42:47;;;;;;;6.20;4.47;;;23.10;43.00;;;;;;5005316;28;21172;-82
2023/05/26 08:45:14;;;;;;;7.63;4.57;;;23.20;43.40;;;;;;5025198;28;20528;-84
2023/05/26 08:47:43;;;;;;;6.30;4.70;;;23.10;43.00;;;;;;5004049;28;20458;-83
2023/05/26 08:50:11;;;;;;;10.20;5.07;;;23.30;43.30;;;;;;5006884;28;20449;-84
2023/05/26 08:52:39;;;;;;;6.40;4.77;;;23.40;43.30;;;;;;5006974;28;20454;-83
2023/05/26 08:55:08;;;;;;;6.23;4.90;;;23.80;43.00;;;;;;5015925;28;20525;-83
2023/05/26 08:57:36;;;;;;;7.83;4.20;;;24.00;41.80;;;;;;5011595;28;20454;-81
2023/05/26 09:00:04;;;;;;;6.97;4.60;;;24.00;41.20;;;;;;5023807;28;20458;-83
2023/05/26 09:02:33;;;;;;;8.73;4.63;;;23.70;41.80;;;;;;5023014;28;21381;-83
2023/05/26 09:05:01;;;;;;;10.37;5.40;;;23.40;42.20;;;;;;5014910;28;20600;-84
2023/05/26 09:07:28;;;;;;;5.23;4.67;;;23.40;43.30;;;;;;5021597;28;21205;-83
2023/05/26 09:09:56;;;;;;;7.57;5.20;;;23.50;43.20;;;;;;5013446;28;20459;-83
2023/05/26 09:12:23;;;;;;;8.23;4.80;;;23.80;41.70;;;;;;5023655;28;20963;-83
2023/05/26 09:14:50;;;;;;;6.93;4.60;;;23.80;42.00;;;;;;5022598;28;20469;-83
2023/05/26 09:17:17;;;;;;;6.30;4.30;;;23.70;41.90;;;;;;5011456;28;20454;-84
2023/05/26 09:19:45;;;;;;;12.07;5.10;;;24.00;42.60;;;;;;4998717;28;20439;-84
2023/05/26 09:22:14;;;;;;;8.77;4.53;;;24.00;41.90;;;;;;5014774;28;20497;-82
2023/05/26 09:24:45;;;;;;;7.13;4.73;;;24.00;41.90;;;;;;5009184;28;20994;-84
2023/05/26 09:27:21;;;;;;;7.33;4.20;;;24.20;41.30;;;;;;5007885;28;20457;-85
2023/05/26 09:29:52;;;;;;;10.77;4.70;;;24.30;41.60;;;;;;5011538;28;20453;-82
2023/05/26 09:32:20;;;;;;;5.17;4.70;;;24.50;40.00;;;;;;5023680;28;20441;-82
2023/05/26 09:34:50;;;;;;;9.60;4.10;;;24.60;40.50;;;;;;5005991;28;20466;-83
2023/05/26 09:37:19;;;;;;;9.40;4.60;;;24.80;40.50;;;;;;5024114;28;20561;-84
2023/05/26 09:39:46;;;;;;;11.03;4.77;;;25.00;38.70;;;;;;4996515;28;21139;-84
2023/05/26 09:42:13;;;;;;;6.07;4.40;;;25.00;39.70;;;;;;5006939;28;20489;-83
2023/05/26 09:44:39;;;;;;;7.17;4.47;;;25.20;40.40;;;;;;5013909;28;20485;-83
2023/05/26 09:47:07;;;;;;;7.70;4.70;;;25.40;38.90;;;;;;5010334;28;20453;-85
2023/05/26 09:49:37;;;;;;;8.60;4.47;;;25.50;37.60;;;;;;4997589;28;20581;-82
2023/05/26 09:52:04;;;;;;;5.50;4.20;;;25.80;39.30;;;;;;5020139;28;20454;-84
2023/05/26 09:54:32;;;;;;;7.90;4.40;;;26.00;37.30;;;;;;5021307;28;20488;-83
2023/05/26 09:57:02;;;;;;;8.20;4.70;;;25.90;36.80;;;;;;5004106;28;20453;-85
2023/05/26 09:59:36;;;;;;;7.43;4.90;;;25.70;36.60;;;;;;5008797;28;21191;-84
2023/05/26 10:02:09;;;;;;;9.93;4.37;;;25.60;37.40;;;;;;5004665;28;20905;-83
2023/05/26 10:04:36;;;;;;;6.60;4.40;;;25.90;38.40;;;;;;4989681;28;20867;-83
2023/05/26 10:07:03;;;;;;;5.93;4.10;;;26.00;37.20;;;;;;5021895;28;20442;-84
2023/05/26 10:09:33;;;;;;;8.10;4.73;;;26.00;36.60;;;;;;5007534;28;20460;-85
2023/05/26 10:12:01;;;;;;;8.43;4.60;;;25.80;36.70;;;;;;5004006;28;20442;-85
2023/05/26 10:14:28;;;;;;;7.43;4.80;;;25.50;36.70;;;;;;5009054;28;20458;-84
2023/05/26 10:16:55;;;;;;;7.73;4.57;;;25.40;36.50;;;;;;5023512;28;20956;-85
2023/05/26 10:19:22;;;;;;;5.60;4.23;;;25.90;37.30;;;;;;5025238;28;20468;-84
2023/05/26 10:21:56;;;;;;;9.43;5.23;;;25.90;37.50;;;;;;5000098;28;20461;-83
2023/05/26 10:24:31;;;;;;;8.93;4.83;;;26.10;37.00;;;;;;5012529;28;20461;-85
2023/05/26 10:27:06;;;;;;;8.20;4.40;;;26.50;37.60;;;;;;5031134;28;20453;-85
2023/05/26 10:29:44;;;;;;;8.97;4.43;;;26.90;35.90;;;;;;5027183;28;20441;-84
2023/05/26 10:32:45;;;;;;;6.07;4.50;;;26.70;34.90;;;;;;5026392;28;20450;-84
2023/05/26 10:35:32;;;;;;;8.83;4.50;;;26.60;35.40;;;;;;5010388;28;20460;-84
2023/05/26 10:38:12;;;;;;;6.40;4.57;;;26.70;34.20;;;;;;5023354;28;20441;-84
2023/05/26 10:40:43;;;;;;;8.13;4.60;;;26.80;34.00;;;;;;5035987;28;20997;-85
2023/05/26 10:43:15;;;;;;;9.43;4.73;;;26.60;33.80;;;;;;5001789;28;20481;-84
2023/05/26 10:45:46;;;;;;;5.60;4.23;;;26.60;33.40;;;;;;5004276;28;20497;-84
2023/05/26 10:48:18;;;;;;;7.40;4.83;;;26.70;32.60;;;;;;5029799;28;20465;-85
2023/05/26 10:51:21;;;;;;;12.63;4.80;;;27.00;31.70;;;;;;5018547;28;20438;-83
2023/05/26 10:53:48;;;;;;;5.73;4.20;;;27.00;32.50;;;;;;5012709;28;20979;-85
2023/05/26 10:56:18;;;;;;;6.57;4.17;;;26.50;32.60;;;;;;5026927;28;20464;-85
2023/05/26 10:58:49;;;;;;;6.20;4.80;;;26.60;31.80;;;;;;5010110;28;20438;-84
2023/05/26 11:01:23;;;;;;;10.40;4.50;;;26.80;33.50;;;;;;5016759;28;20454;-85
2023/05/26 11:03:57;;;;;;;9.60;4.00;;;27.00;32.70;;;;;;5021084;28;20465;-86
2023/05/26 11:06:35;;;;;;;6.60;4.50;;;27.10;33.30;;;;;;5038320;28;21061;-84
2023/05/26 11:09:07;;;;;;;5.77;3.90;;;27.40;32.20;;;;;;5018987;28;20458;-84
2023/05/26 11:11:38;;;;;;;8.43;4.40;;;27.40;32.00;;;;;;5003601;28;20624;-84
2023/05/26 11:14:09;;;;;;;5.27;4.00;;;27.40;33.30;;;;;;5014278;28;20519;-83
2023/05/26 11:16:37;;;;;;;6.97;4.07;;;27.60;33.30;;;;;;5015190;28;20989;-84
2023/05/26 11:19:08;;;;;;;7.80;4.00;;;27.90;33.10;;;;;;5023401;28;20943;-82
2023/05/26 11:21:36;;;;;;;5.00;4.03;;;28.00;31.90;;;;;;5032223;28;20454;-84
2023/05/26 11:24:04;;;;;;;8.73;4.97;;;27.90;32.50;;;;;;5036426;28;20504;-84
2023/05/26 11:26:33;;;;;;;6.03;4.50;;;27.70;32.60;;;;;;5033040;28;20454;-86
2023/05/26 11:29:02;;;;;;;8.83;4.87;;;27.70;32.30;;;;;;5021053;28;20454;-85
2023/05/26 11:31:29;;;;;;;7.97;3.83;;;27.70;32.50;;;;;;5017139;28;20470;-84
2023/05/26 11:33:58;;;;;;;5.60;4.40;;;27.90;32.70;;;;;;5013735;28;20463;-84
2023/05/26 11:36:26;;;;;;;9.07;4.37;;;28.00;32.40;;;;;;4999919;28;20481;-84
2023/05/26 11:38:58;;;;;;;8.90;4.47;;;28.30;32.40;;;;;;5026760;28;20481;-84
2023/05/26 11:41:26;;;;;;;7.60;3.80;;;28.10;31.60;;;;;;5032637;28;20453;-84
2023/05/26 11:43:54;;;;;;;9.70;4.60;;;27.70;30.90;;;;;;5029263;28;20573;-84
2023/05/26 11:46:22;;;;;;;6.50;4.10;;;27.60;31.70;;;;;;5034379;28;20460;-84
2023/05/26 11:48:50;;;;;;;8.60;4.37;;;27.70;31.50;;;;;;5013156;28;20442;-83
2023/05/26 11:51:19;;;;;;;5.00;4.13;;;28.10;32.60;;;;;;5013855;28;20438;-85
2023/05/26 11:53:52;;;;;;;9.60;4.53;;;28.10;30.90;;;;;;5005101;28;20459;-85
2023/05/26 11:56:20;;;;;;;8.03;5.23;;;28.60;30.30;;;;;;5032983;28;20461;-85
2023/05/26 11:58:48;;;;;;;8.30;4.20;;;28.70;30.30;;;;;;5030225;28;20442;-86
2023/05/26 12:01:16;;;;;;;8.90;3.60;;;28.70;30.50;;;;;;5029196;28;20454;-84
2023/05/26 12:03:49;;;;;;;8.70;4.60;;;28.90;32.10;;;;;;5014066;28;20494;-85
2023/05/26 12:06:17;;;;;;;8.73;4.83;;;28.70;29.80;;;;;;5031885;28;20458;-84
2023/05/26 12:08:47;;;;;;;5.20;4.17;;;28.60;31.40;;;;;;5019628;28;20462;-83
2023/05/26 12:11:16;;;;;;;9.03;4.50;;;28.70;30.50;;;;;;4993210;28;20985;-85
2023/05/26 12:13:43;;;;;;;6.83;4.17;;;28.80;30.10;;;;;;5031277;28;20459;-85
2023/05/26 12:16:21;;;;;;;5.53;4.00;;;28.80;30.90;;;;;;5021706;28;20559;-85
2023/05/26 12:18:52;;;;;;;4.93;4.13;;;28.70;29.80;;;;;;5021361;28;20548;-85
2023/05/26 12:21:19;;;;;;;4.90;3.97;;;28.70;29.90;;;;;;5011917;28;20446;-84
2023/05/26 12:23:48;;;;;;;5.67;4.00;;;29.00;30.30;;;;;;5014097;28;20472;-84
2023/05/26 12:26:15;;;;;;;6.53;4.47;;;29.20;30.20;;;;;;5014963;28;20455;-84
2023/05/26 12:28:43;;;;;;;11.80;4.57;;;28.90;29.40;;;;;;4993632;28;20451;-85
2023/05/26 12:31:10;;;;;;;7.80;4.40;;;28.30;30.60;;;;;;5002894;28;20442;-84
2023/05/26 12:33:38;;;;;;;7.80;4.23;;;28.30;31.20;;;;;;5001172;28;20472;-84
2023/05/26 12:36:06;;;;;;;5.80;4.00;;;28.50;32.10;;;;;;4997329;28;20612;-87
2023/05/26 12:38:41;;;;;;;10.13;4.47;;;28.80;30.00;;;;;;5004833;28;20443;-83
2023/05/26 12:41:09;;;;;;;7.10;4.20;;;29.00;30.30;;;;;;5009998;28;20457;-86
2023/05/26 12:43:37;;;;;;;6.40;4.70;;;29.20;30.40;;;;;;5014970;28;20995;-86
2023/05/26 12:46:04;;;;;;;10.40;4.60;;;29.40;30.00;;;;;;5021373;28;20458;-84
2023/05/26 12:48:31;;;;;;;7.40;4.30;;;29.60;29.30;;;;;;5018986;28;20951;-85
2023/05/26 12:50:58;;;;;;;12.33;4.33;;;29.30;30.10;;;;;;5024357;28;20504;-83
2023/05/26 12:53:25;;;;;;;8.03;4.30;;;29.10;29.20;;;;;;5003907;28;20932;-82